sensor_id;sensor_type;location;lat;lon;timestamp;temperature;humidity
336;DHT22;156;48.738;9.228;2022-12-19T00:01:05;-1.80;1.00
336;DHT22;156;48.738;9.228;2022-12-19T00:03:33;-1.80;1.00
336;DHT22;156;48.738;9.228;2022-12-19T00:06:01;-1.70;1.00
336;DHT22;156;48.738;9.228;2022-12-19T00:08:28;-1.70;1.00
336;DHT22;156;48.738;9.228;2022-12-19T00:10:56;-1.70;1.00
336;DHT22;156;48.738;9.228;2022-12-19T00:13:24;-1.70;1.00
336;DHT22;156;48.738;9.228;2022-12-19T00:15:51;-1.80;1.00
336;DHT22;156;48.738;9.228;2022-12-19T00:18:18;-1.80;1.00
336;DHT22;156;48.738;9.228;2022-12-19T00:20:55;-1.80;1.00
336;DHT22;156;48.738;9.228;2022-12-19T00:23:22;-1.70;1.00
336;DHT22;156;48.738;9.228;2022-12-19T00:25:49;-1.60;1.00
336;DHT22;156;48.738;9.228;2022-12-19T00:28:15;-1.60;1.00
336;DHT22;156;48.738;9.228;2022-12-19T00:30:42;-1.60;1.00
336;DHT22;156;48.738;9.228;2022-12-19T00:33:09;-1.60;1.00
336;DHT22;156;48.738;9.228;2022-12-19T00:35:36;-1.60;1.00
336;DHT22;156;48.738;9.228;2022-12-19T00:38:04;-1.50;1.00
336;DHT22;156;48.738;9.228;2022-12-19T00:40:31;-1.50;1.00
336;DHT22;156;48.738;9.228;2022-12-19T00:42:58;-1.40;1.00
336;DHT22;156;48.738;9.228;2022-12-19T00:45:25;-1.40;1.00
336;DHT22;156;48.738;9.228;2022-12-19T00:47:52;-1.40;1.00
336;DHT22;156;48.738;9.228;2022-12-19T00:50:19;-1.50;1.00
336;DHT22;156;48.738;9.228;2022-12-19T00:52:46;-1.60;1.00
336;DHT22;156;48.738;9.228;2022-12-19T00:55:14;-1.70;1.00
336;DHT22;156;48.738;9.228;2022-12-19T00:57:41;-1.80;1.00
336;DHT22;156;48.738;9.228;2022-12-19T01:00:09;-1.90;1.00
336;DHT22;156;48.738;9.228;2022-12-19T01:02:36;-2.00;1.00
336;DHT22;156;48.738;9.228;2022-12-19T01:05:04;-2.00;1.00
336;DHT22;156;48.738;9.228;2022-12-19T01:07:33;-2.10;1.00
336;DHT22;156;48.738;9.228;2022-12-19T01:10:01;-2.20;1.00
336;DHT22;156;48.738;9.228;2022-12-19T01:12:29;-2.20;1.00
336;DHT22;156;48.738;9.228;2022-12-19T01:15:11;-2.20;1.00
336;DHT22;156;48.738;9.228;2022-12-19T01:17:38;-2.20;1.00
336;DHT22;156;48.738;9.228;2022-12-19T01:20:05;-2.20;1.00
336;DHT22;156;48.738;9.228;2022-12-19T01:22:32;-2.20;1.00
336;DHT22;156;48.738;9.228;2022-12-19T01:24:59;-2.20;1.00
336;DHT22;156;48.738;9.228;2022-12-19T01:27:26;-2.10;2.30
336;DHT22;156;48.738;9.228;2022-12-19T01:29:54;-2.10;2.20
336;DHT22;156;48.738;9.228;2022-12-19T01:32:21;-2.10;1.40
336;DHT22;156;48.738;9.228;2022-12-19T01:34:48;-2.10;1.00
336;DHT22;156;48.738;9.228;2022-12-19T01:37:15;-2.10;1.00
336;DHT22;156;48.738;9.228;2022-12-19T01:39:42;-2.10;1.70
336;DHT22;156;48.738;9.228;2022-12-19T01:42:13;-2.00;2.40
336;DHT22;156;48.738;9.228;2022-12-19T01:45:18;-2.20;1.00
336;DHT22;156;48.738;9.228;2022-12-19T01:47:50;-2.10;1.00
336;DHT22;156;48.738;9.228;2022-12-19T01:50:22;-2.20;1.00
336;DHT22;156;48.738;9.228;2022-12-19T01:52:51;-2.20;1.00
336;DHT22;156;48.738;9.228;2022-12-19T01:55:19;-2.20;1.70
336;DHT22;156;48.738;9.228;2022-12-19T01:57:46;-2.20;2.50
336;DHT22;156;48.738;9.228;2022-12-19T02:00:15;-2.20;2.60
336;DHT22;156;48.738;9.228;2022-12-19T02:02:45;-2.10;5.80
336;DHT22;156;48.738;9.228;2022-12-19T02:05:14;-2.10;6.10
336;DHT22;156;48.738;9.228;2022-12-19T02:07:42;-2.10;6.60
336;DHT22;156;48.738;9.228;2022-12-19T02:10:09;-2.10;6.80
336;DHT22;156;48.738;9.228;2022-12-19T02:12:39;-2.10;7.80
336;DHT22;156;48.738;9.228;2022-12-19T02:15:08;-2.10;10.60
336;DHT22;156;48.738;9.228;2022-12-19T02:17:45;-2.10;10.80
336;DHT22;156;48.738;9.228;2022-12-19T02:20:43;-2.10;11.60
336;DHT22;156;48.738;9.228;2022-12-19T02:26:47;-2.10;14.80
336;DHT22;156;48.738;9.228;2022-12-19T02:32:25;-2.10;17.10
336;DHT22;156;48.738;9.228;2022-12-19T02:34:57;-2.10;19.00
336;DHT22;156;48.738;9.228;2022-12-19T02:37:27;-2.00;22.00
336;DHT22;156;48.738;9.228;2022-12-19T02:39:59;-2.00;22.70
336;DHT22;156;48.738;9.228;2022-12-19T02:42:31;-2.00;21.70
336;DHT22;156;48.738;9.228;2022-12-19T02:45:00;-2.00;22.60
336;DHT22;156;48.738;9.228;2022-12-19T02:47:31;-1.90;22.00
336;DHT22;156;48.738;9.228;2022-12-19T02:49:58;-1.90;22.60
336;DHT22;156;48.738;9.228;2022-12-19T02:52:45;-1.80;22.90
336;DHT22;156;48.738;9.228;2022-12-19T02:55:16;-1.80;22.50
336;DHT22;156;48.738;9.228;2022-12-19T03:00:50;-1.70;22.60
336;DHT22;156;48.738;9.228;2022-12-19T03:03:22;-1.60;23.00
336;DHT22;156;48.738;9.228;2022-12-19T03:06:00;-1.50;22.70
336;DHT22;156;48.738;9.228;2022-12-19T03:08:36;-1.50;23.20
336;DHT22;156;48.738;9.228;2022-12-19T03:11:06;-1.50;27.00
336;DHT22;156;48.738;9.228;2022-12-19T03:13:36;-1.40;30.00
336;DHT22;156;48.738;9.228;2022-12-19T03:16:07;-1.40;28.80
336;DHT22;156;48.738;9.228;2022-12-19T03:18:37;-1.40;26.90
336;DHT22;156;48.738;9.228;2022-12-19T03:21:10;-1.30;26.30
336;DHT22;156;48.738;9.228;2022-12-19T03:23:38;-1.20;25.10
336;DHT22;156;48.738;9.228;2022-12-19T03:26:09;-1.10;23.90
336;DHT22;156;48.738;9.228;2022-12-19T03:28:41;-1.10;19.60
336;DHT22;156;48.738;9.228;2022-12-19T03:31:10;-1.00;19.90
336;DHT22;156;48.738;9.228;2022-12-19T03:33:41;-1.00;19.40
336;DHT22;156;48.738;9.228;2022-12-19T03:36:12;-1.00;18.20
336;DHT22;156;48.738;9.228;2022-12-19T03:38:40;-0.90;16.80
336;DHT22;156;48.738;9.228;2022-12-19T03:41:09;-0.90;15.60
336;DHT22;156;48.738;9.228;2022-12-19T03:43:37;-0.90;15.80
336;DHT22;156;48.738;9.228;2022-12-19T03:46:07;-0.90;16.10
336;DHT22;156;48.738;9.228;2022-12-19T03:48:44;-0.90;15.50
336;DHT22;156;48.738;9.228;2022-12-19T03:51:19;-0.60;15.40
336;DHT22;156;48.738;9.228;2022-12-19T03:53:57;-0.90;15.60
336;DHT22;156;48.738;9.228;2022-12-19T03:56:31;-0.90;17.50
336;DHT22;156;48.738;9.228;2022-12-19T03:59:01;-0.90;17.90
336;DHT22;156;48.738;9.228;2022-12-19T04:01:32;-0.80;17.10
336;DHT22;156;48.738;9.228;2022-12-19T04:04:02;-0.80;19.10
336;DHT22;156;48.738;9.228;2022-12-19T04:06:32;-0.70;19.40
336;DHT22;156;48.738;9.228;2022-12-19T04:09:00;-0.70;17.90
336;DHT22;156;48.738;9.228;2022-12-19T04:11:33;-0.60;16.40
336;DHT22;156;48.738;9.228;2022-12-19T04:14:04;-0.60;15.80
336;DHT22;156;48.738;9.228;2022-12-19T04:16:36;-0.60;15.60
336;DHT22;156;48.738;9.228;2022-12-19T04:19:10;-0.60;12.00
336;DHT22;156;48.738;9.228;2022-12-19T04:21:42;-0.60;12.10
336;DHT22;156;48.738;9.228;2022-12-19T04:24:14;-0.60;13.40
336;DHT22;156;48.738;9.228;2022-12-19T04:26:44;-0.60;14.50
336;DHT22;156;48.738;9.228;2022-12-19T04:29:13;-0.50;15.50
336;DHT22;156;48.738;9.228;2022-12-19T04:31:41;-0.50;14.80
336;DHT22;156;48.738;9.228;2022-12-19T04:34:10;-0.50;15.10
336;DHT22;156;48.738;9.228;2022-12-19T04:36:37;-0.50;13.60
336;DHT22;156;48.738;9.228;2022-12-19T04:39:04;-0.60;15.00
336;DHT22;156;48.738;9.228;2022-12-19T04:41:31;-0.50;19.00
336;DHT22;156;48.738;9.228;2022-12-19T04:43:58;-0.50;20.80
336;DHT22;156;48.738;9.228;2022-12-19T04:46:25;-0.50;24.20
336;DHT22;156;48.738;9.228;2022-12-19T04:48:52;-0.40;27.30
336;DHT22;156;48.738;9.228;2022-12-19T04:51:20;-0.30;27.70
336;DHT22;156;48.738;9.228;2022-12-19T04:53:47;-0.30;28.30
336;DHT22;156;48.738;9.228;2022-12-19T04:56:14;-0.20;29.60
336;DHT22;156;48.738;9.228;2022-12-19T04:58:41;-0.20;29.20
336;DHT22;156;48.738;9.228;2022-12-19T05:01:08;-0.10;31.60
336;DHT22;156;48.738;9.228;2022-12-19T05:03:35;-0.10;30.00
336;DHT22;156;48.738;9.228;2022-12-19T05:06:07;-0.10;27.80
336;DHT22;156;48.738;9.228;2022-12-19T05:08:37;0.00;27.90
336;DHT22;156;48.738;9.228;2022-12-19T05:11:06;0.00;27.70
336;DHT22;156;48.738;9.228;2022-12-19T05:13:34;0.00;27.60
336;DHT22;156;48.738;9.228;2022-12-19T05:16:03;0.00;27.80
336;DHT22;156;48.738;9.228;2022-12-19T05:18:31;0.00;27.30
336;DHT22;156;48.738;9.228;2022-12-19T05:20:58;0.00;27.90
336;DHT22;156;48.738;9.228;2022-12-19T05:23:26;0.00;30.10
336;DHT22;156;48.738;9.228;2022-12-19T05:25:56;0.00;35.00
336;DHT22;156;48.738;9.228;2022-12-19T05:28:23;0.00;36.20
336;DHT22;156;48.738;9.228;2022-12-19T05:30:50;0.10;37.40
336;DHT22;156;48.738;9.228;2022-12-19T05:33:17;0.10;37.00
336;DHT22;156;48.738;9.228;2022-12-19T05:35:44;0.10;37.90
336;DHT22;156;48.738;9.228;2022-12-19T05:38:11;0.10;37.00
336;DHT22;156;48.738;9.228;2022-12-19T05:40:38;0.10;41.90
336;DHT22;156;48.738;9.228;2022-12-19T05:43:06;0.10;45.90
336;DHT22;156;48.738;9.228;2022-12-19T05:45:33;0.10;46.30
336;DHT22;156;48.738;9.228;2022-12-19T05:48:03;0.10;44.00
336;DHT22;156;48.738;9.228;2022-12-19T05:50:29;0.10;41.90
336;DHT22;156;48.738;9.228;2022-12-19T05:52:56;0.10;41.40
336;DHT22;156;48.738;9.228;2022-12-19T05:55:23;0.10;37.30
336;DHT22;156;48.738;9.228;2022-12-19T05:57:50;0.10;35.80
336;DHT22;156;48.738;9.228;2022-12-19T06:00:19;0.10;32.60
336;DHT22;156;48.738;9.228;2022-12-19T06:02:46;0.10;35.60
336;DHT22;156;48.738;9.228;2022-12-19T06:05:13;0.10;35.60
336;DHT22;156;48.738;9.228;2022-12-19T06:07:41;0.20;36.60
336;DHT22;156;48.738;9.228;2022-12-19T06:10:09;0.20;35.60
336;DHT22;156;48.738;9.228;2022-12-19T06:12:36;0.10;32.30
336;DHT22;156;48.738;9.228;2022-12-19T06:15:03;0.10;28.00
336;DHT22;156;48.738;9.228;2022-12-19T06:17:32;0.00;25.10
336;DHT22;156;48.738;9.228;2022-12-19T06:19:59;0.00;24.90
336;DHT22;156;48.738;9.228;2022-12-19T06:22:26;-0.10;26.30
336;DHT22;156;48.738;9.228;2022-12-19T06:24:53;-0.10;27.80
336;DHT22;156;48.738;9.228;2022-12-19T06:27:20;0.00;28.50
336;DHT22;156;48.738;9.228;2022-12-19T06:29:46;0.00;31.30
336;DHT22;156;48.738;9.228;2022-12-19T06:32:13;0.00;32.00
336;DHT22;156;48.738;9.228;2022-12-19T06:34:41;0.00;35.80
336;DHT22;156;48.738;9.228;2022-12-19T06:37:08;0.10;37.00
336;DHT22;156;48.738;9.228;2022-12-19T06:39:36;0.10;41.80
336;DHT22;156;48.738;9.228;2022-12-19T06:42:03;0.10;45.70
336;DHT22;156;48.738;9.228;2022-12-19T06:44:47;0.10;51.00
336;DHT22;156;48.738;9.228;2022-12-19T06:47:14;0.10;54.50
336;DHT22;156;48.738;9.228;2022-12-19T06:49:42;0.10;57.50
336;DHT22;156;48.738;9.228;2022-12-19T06:52:13;0.10;59.10
336;DHT22;156;48.738;9.228;2022-12-19T06:54:42;0.20;62.90
336;DHT22;156;48.738;9.228;2022-12-19T06:57:09;0.20;64.80
336;DHT22;156;48.738;9.228;2022-12-19T06:59:36;0.20;66.00
336;DHT22;156;48.738;9.228;2022-12-19T07:02:09;0.20;71.40
336;DHT22;156;48.738;9.228;2022-12-19T07:04:44;0.20;82.10
336;DHT22;156;48.738;9.228;2022-12-19T07:07:13;0.20;88.70
336;DHT22;156;48.738;9.228;2022-12-19T07:09:40;0.10;91.60
336;DHT22;156;48.738;9.228;2022-12-19T07:12:07;0.10;96.00
336;DHT22;156;48.738;9.228;2022-12-19T07:14:34;0.10;98.50
336;DHT22;156;48.738;9.228;2022-12-19T07:17:01;0.10;99.90
336;DHT22;156;48.738;9.228;2022-12-19T07:19:30;0.00;99.90
336;DHT22;156;48.738;9.228;2022-12-19T07:21:59;0.10;99.90
336;DHT22;156;48.738;9.228;2022-12-19T07:24:28;0.10;99.90
336;DHT22;156;48.738;9.228;2022-12-19T07:26:55;0.20;99.90
336;DHT22;156;48.738;9.228;2022-12-19T07:29:22;0.20;99.90
336;DHT22;156;48.738;9.228;2022-12-19T07:31:50;0.20;99.90
336;DHT22;156;48.738;9.228;2022-12-19T07:34:16;0.30;99.90
336;DHT22;156;48.738;9.228;2022-12-19T07:36:43;0.30;99.90
336;DHT22;156;48.738;9.228;2022-12-19T07:39:11;0.30;99.90
336;DHT22;156;48.738;9.228;2022-12-19T07:41:39;0.40;99.90
336;DHT22;156;48.738;9.228;2022-12-19T07:44:06;0.60;99.40
336;DHT22;156;48.738;9.228;2022-12-19T07:46:34;0.50;99.20
336;DHT22;156;48.738;9.228;2022-12-19T07:49:00;0.60;98.70
336;DHT22;156;48.738;9.228;2022-12-19T07:51:27;0.70;96.60
336;DHT22;156;48.738;9.228;2022-12-19T07:53:54;0.80;96.10
336;DHT22;156;48.738;9.228;2022-12-19T07:56:23;0.90;93.60
336;DHT22;156;48.738;9.228;2022-12-19T07:58:49;1.10;93.70
336;DHT22;156;48.738;9.228;2022-12-19T08:01:17;1.10;85.20
336;DHT22;156;48.738;9.228;2022-12-19T08:03:47;1.20;84.60
336;DHT22;156;48.738;9.228;2022-12-19T08:06:14;1.30;82.40
336;DHT22;156;48.738;9.228;2022-12-19T08:08:44;1.60;69.50
336;DHT22;156;48.738;9.228;2022-12-19T08:11:12;1.60;67.80
336;DHT22;156;48.738;9.228;2022-12-19T08:13:43;1.60;62.00
336;DHT22;156;48.738;9.228;2022-12-19T08:16:10;1.50;62.50
336;DHT22;156;48.738;9.228;2022-12-19T08:18:40;1.50;62.70
336;DHT22;156;48.738;9.228;2022-12-19T08:21:10;1.40;65.20
336;DHT22;156;48.738;9.228;2022-12-19T08:23:40;1.50;66.60
336;DHT22;156;48.738;9.228;2022-12-19T08:26:10;1.50;61.90
336;DHT22;156;48.738;9.228;2022-12-19T08:28:38;1.30;70.70
336;DHT22;156;48.738;9.228;2022-12-19T08:31:08;1.40;71.10
336;DHT22;156;48.738;9.228;2022-12-19T08:33:35;1.30;78.20
336;DHT22;156;48.738;9.228;2022-12-19T08:36:03;1.30;78.40
336;DHT22;156;48.738;9.228;2022-12-19T08:38:30;1.10;81.30
336;DHT22;156;48.738;9.228;2022-12-19T08:40:57;1.10;84.50
336;DHT22;156;48.738;9.228;2022-12-19T08:43:25;1.10;88.50
336;DHT22;156;48.738;9.228;2022-12-19T08:45:52;1.30;91.20
336;DHT22;156;48.738;9.228;2022-12-19T08:48:21;1.30;91.30
336;DHT22;156;48.738;9.228;2022-12-19T08:50:49;1.40;89.70
336;DHT22;156;48.738;9.228;2022-12-19T08:53:16;1.60;83.10
336;DHT22;156;48.738;9.228;2022-12-19T08:55:43;1.70;78.90
336;DHT22;156;48.738;9.228;2022-12-19T08:58:10;1.70;71.50
336;DHT22;156;48.738;9.228;2022-12-19T09:00:37;1.80;65.80
336;DHT22;156;48.738;9.228;2022-12-19T09:03:04;1.80;66.40
336;DHT22;156;48.738;9.228;2022-12-19T09:05:32;1.80;66.70
336;DHT22;156;48.738;9.228;2022-12-19T09:07:59;1.90;66.40
336;DHT22;156;48.738;9.228;2022-12-19T09:10:26;1.90;62.50
336;DHT22;156;48.738;9.228;2022-12-19T09:12:56;2.00;57.80
336;DHT22;156;48.738;9.228;2022-12-19T09:15:23;2.10;54.70
336;DHT22;156;48.738;9.228;2022-12-19T09:17:50;2.20;47.80
336;DHT22;156;48.738;9.228;2022-12-19T09:20:17;2.20;40.00
336;DHT22;156;48.738;9.228;2022-12-19T09:22:45;2.20;38.70
336;DHT22;156;48.738;9.228;2022-12-19T09:25:12;2.30;37.10
336;DHT22;156;48.738;9.228;2022-12-19T09:27:39;2.40;34.40
336;DHT22;156;48.738;9.228;2022-12-19T09:30:07;2.50;33.80
336;DHT22;156;48.738;9.228;2022-12-19T09:32:37;2.50;31.00
336;DHT22;156;48.738;9.228;2022-12-19T09:35:05;2.50;30.30
336;DHT22;156;48.738;9.228;2022-12-19T09:37:32;2.50;28.90
336;DHT22;156;48.738;9.228;2022-12-19T09:40:00;2.60;26.30
336;DHT22;156;48.738;9.228;2022-12-19T09:42:41;2.60;25.60
336;DHT22;156;48.738;9.228;2022-12-19T09:45:23;2.70;21.80
336;DHT22;156;48.738;9.228;2022-12-19T09:47:54;2.70;18.20
336;DHT22;156;48.738;9.228;2022-12-19T09:50:30;2.70;18.20
336;DHT22;156;48.738;9.228;2022-12-19T09:53:02;2.80;16.40
336;DHT22;156;48.738;9.228;2022-12-19T09:55:35;2.70;18.70
336;DHT22;156;48.738;9.228;2022-12-19T09:58:08;2.80;21.10
336;DHT22;156;48.738;9.228;2022-12-19T10:00:40;2.90;21.60
336;DHT22;156;48.738;9.228;2022-12-19T10:03:16;2.80;20.70
336;DHT22;156;48.738;9.228;2022-12-19T10:05:47;2.80;21.00
336;DHT22;156;48.738;9.228;2022-12-19T10:08:18;3.00;18.70
336;DHT22;156;48.738;9.228;2022-12-19T10:10:56;3.20;17.70
336;DHT22;156;48.738;9.228;2022-12-19T10:13:48;3.20;18.10
336;DHT22;156;48.738;9.228;2022-12-19T10:16:29;3.10;14.10
336;DHT22;156;48.738;9.228;2022-12-19T10:19:04;3.20;15.00
336;DHT22;156;48.738;9.228;2022-12-19T10:21:36;3.20;17.90
336;DHT22;156;48.738;9.228;2022-12-19T10:27:09;3.40;14.00
336;DHT22;156;48.738;9.228;2022-12-19T10:29:51;3.30;14.10
336;DHT22;156;48.738;9.228;2022-12-19T10:32:25;3.30;14.30
336;DHT22;156;48.738;9.228;2022-12-19T10:34:55;3.30;14.50
336;DHT22;156;48.738;9.228;2022-12-19T10:37:26;3.40;14.50
336;DHT22;156;48.738;9.228;2022-12-19T10:40:03;3.50;10.00
336;DHT22;156;48.738;9.228;2022-12-19T10:42:47;3.50;10.30
336;DHT22;156;48.738;9.228;2022-12-19T10:45:18;3.50;8.40
336;DHT22;156;48.738;9.228;2022-12-19T10:47:46;3.70;6.80
336;DHT22;156;48.738;9.228;2022-12-19T10:50:16;3.70;2.60
336;DHT22;156;48.738;9.228;2022-12-19T10:52:50;3.90;1.00
336;DHT22;156;48.738;9.228;2022-12-19T10:55:40;3.90;1.00
336;DHT22;156;48.738;9.228;2022-12-19T10:58:24;3.90;1.00
336;DHT22;156;48.738;9.228;2022-12-19T11:01:02;3.80;1.00
336;DHT22;156;48.738;9.228;2022-12-19T11:03:31;3.80;1.00
336;DHT22;156;48.738;9.228;2022-12-19T11:06:00;3.90;1.00
336;DHT22;156;48.738;9.228;2022-12-19T11:08:28;4.00;1.00
336;DHT22;156;48.738;9.228;2022-12-19T11:11:09;4.00;1.00
336;DHT22;156;48.738;9.228;2022-12-19T11:13:43;4.10;1.00
336;DHT22;156;48.738;9.228;2022-12-19T11:16:11;4.20;1.00
336;DHT22;156;48.738;9.228;2022-12-19T11:18:43;4.30;1.00
336;DHT22;156;48.738;9.228;2022-12-19T11:21:16;4.40;1.00
336;DHT22;156;48.738;9.228;2022-12-19T11:23:48;4.40;1.00
336;DHT22;156;48.738;9.228;2022-12-19T11:26:28;4.40;1.00
336;DHT22;156;48.738;9.228;2022-12-19T11:29:02;4.50;1.00
336;DHT22;156;48.738;9.228;2022-12-19T11:31:31;4.50;1.00
336;DHT22;156;48.738;9.228;2022-12-19T11:34:05;4.60;1.00
336;DHT22;156;48.738;9.228;2022-12-19T11:36:36;4.70;1.00
336;DHT22;156;48.738;9.228;2022-12-19T11:39:13;4.80;1.00
336;DHT22;156;48.738;9.228;2022-12-19T11:41:45;4.90;1.00
336;DHT22;156;48.738;9.228;2022-12-19T11:44:25;4.90;1.00
336;DHT22;156;48.738;9.228;2022-12-19T11:46:58;4.90;1.00
336;DHT22;156;48.738;9.228;2022-12-19T11:49:31;5.00;1.00
336;DHT22;156;48.738;9.228;2022-12-19T11:52:06;5.10;1.00
336;DHT22;156;48.738;9.228;2022-12-19T11:54:44;5.30;1.00
336;DHT22;156;48.738;9.228;2022-12-19T11:57:14;5.40;1.00
336;DHT22;156;48.738;9.228;2022-12-19T11:59:42;5.50;1.00
336;DHT22;156;48.738;9.228;2022-12-19T12:02:34;5.60;1.00
336;DHT22;156;48.738;9.228;2022-12-19T12:05:21;5.50;1.00
336;DHT22;156;48.738;9.228;2022-12-19T12:07:56;5.40;1.00
336;DHT22;156;48.738;9.228;2022-12-19T12:10:29;5.30;1.00
336;DHT22;156;48.738;9.228;2022-12-19T12:13:04;5.20;1.00
336;DHT22;156;48.738;9.228;2022-12-19T12:15:43;5.00;1.00
336;DHT22;156;48.738;9.228;2022-12-19T12:18:24;5.10;1.00
336;DHT22;156;48.738;9.228;2022-12-19T12:20:59;4.90;1.00
336;DHT22;156;48.738;9.228;2022-12-19T12:23:32;5.10;1.00
336;DHT22;156;48.738;9.228;2022-12-19T12:26:06;5.10;1.00
336;DHT22;156;48.738;9.228;2022-12-19T12:28:52;5.10;1.00
336;DHT22;156;48.738;9.228;2022-12-19T12:31:47;5.20;1.00
336;DHT22;156;48.738;9.228;2022-12-19T12:34:33;5.40;1.00
336;DHT22;156;48.738;9.228;2022-12-19T12:37:10;5.50;1.00
336;DHT22;156;48.738;9.228;2022-12-19T12:39:47;5.60;1.00
336;DHT22;156;48.738;9.228;2022-12-19T12:42:25;5.40;1.00
336;DHT22;156;48.738;9.228;2022-12-19T12:44:58;5.40;1.00
336;DHT22;156;48.738;9.228;2022-12-19T12:47:27;5.30;1.00
336;DHT22;156;48.738;9.228;2022-12-19T12:49:56;5.30;1.00
336;DHT22;156;48.738;9.228;2022-12-19T12:52:28;5.40;1.00
336;DHT22;156;48.738;9.228;2022-12-19T12:54:57;5.50;1.00
336;DHT22;156;48.738;9.228;2022-12-19T12:57:34;5.60;1.00
336;DHT22;156;48.738;9.228;2022-12-19T13:00:29;5.60;1.00
336;DHT22;156;48.738;9.228;2022-12-19T13:03:03;5.60;1.00
336;DHT22;156;48.738;9.228;2022-12-19T13:05:38;5.60;1.00
336;DHT22;156;48.738;9.228;2022-12-19T13:08:31;5.70;1.00
336;DHT22;156;48.738;9.228;2022-12-19T13:11:02;5.80;1.00
336;DHT22;156;48.738;9.228;2022-12-19T13:13:48;5.70;1.00
336;DHT22;156;48.738;9.228;2022-12-19T13:16:47;5.70;1.00
336;DHT22;156;48.738;9.228;2022-12-19T13:19:18;5.70;1.00
336;DHT22;156;48.738;9.228;2022-12-19T13:22:15;5.70;1.00
336;DHT22;156;48.738;9.228;2022-12-19T13:24:47;5.60;1.00
336;DHT22;156;48.738;9.228;2022-12-19T13:27:33;5.60;1.00
336;DHT22;156;48.738;9.228;2022-12-19T13:30:16;5.40;1.00
336;DHT22;156;48.738;9.228;2022-12-19T13:33:08;5.30;1.00
336;DHT22;156;48.738;9.228;2022-12-19T13:35:37;5.20;1.00
336;DHT22;156;48.738;9.228;2022-12-19T13:38:19;5.20;1.00
336;DHT22;156;48.738;9.228;2022-12-19T13:40:58;4.80;1.00
336;DHT22;156;48.738;9.228;2022-12-19T13:43:35;4.70;1.00
336;DHT22;156;48.738;9.228;2022-12-19T13:46:26;4.70;1.00
336;DHT22;156;48.738;9.228;2022-12-19T13:49:01;4.70;1.00
336;DHT22;156;48.738;9.228;2022-12-19T13:51:40;4.60;1.00
336;DHT22;156;48.738;9.228;2022-12-19T13:54:18;4.70;1.00
336;DHT22;156;48.738;9.228;2022-12-19T13:56:45;4.90;1.00
336;DHT22;156;48.738;9.228;2022-12-19T13:59:12;5.00;1.00
336;DHT22;156;48.738;9.228;2022-12-19T14:01:40;5.20;1.00
336;DHT22;156;48.738;9.228;2022-12-19T14:04:10;5.30;1.00
336;DHT22;156;48.738;9.228;2022-12-19T14:06:41;5.50;1.00
336;DHT22;156;48.738;9.228;2022-12-19T14:09:20;5.60;1.00
336;DHT22;156;48.738;9.228;2022-12-19T14:11:49;5.70;1.00
336;DHT22;156;48.738;9.228;2022-12-19T14:14:17;5.80;1.00
336;DHT22;156;48.738;9.228;2022-12-19T14:17:06;5.80;1.00
336;DHT22;156;48.738;9.228;2022-12-19T14:19:38;5.70;1.00
336;DHT22;156;48.738;9.228;2022-12-19T14:22:19;5.80;1.00
336;DHT22;156;48.738;9.228;2022-12-19T14:24:52;5.80;1.00
336;DHT22;156;48.738;9.228;2022-12-19T14:27:24;5.70;1.00
336;DHT22;156;48.738;9.228;2022-12-19T14:29:53;5.80;1.00
336;DHT22;156;48.738;9.228;2022-12-19T14:32:21;5.80;1.00
336;DHT22;156;48.738;9.228;2022-12-19T14:34:49;5.80;1.00
336;DHT22;156;48.738;9.228;2022-12-19T14:37:29;5.80;1.00
336;DHT22;156;48.738;9.228;2022-12-19T14:39:58;5.80;1.00
336;DHT22;156;48.738;9.228;2022-12-19T14:42:26;5.80;1.00
336;DHT22;156;48.738;9.228;2022-12-19T14:45:32;5.70;1.00
336;DHT22;156;48.738;9.228;2022-12-19T14:48:00;5.50;1.00
336;DHT22;156;48.738;9.228;2022-12-19T14:50:31;5.50;1.00
336;DHT22;156;48.738;9.228;2022-12-19T14:53:15;5.50;1.00
336;DHT22;156;48.738;9.228;2022-12-19T14:58:15;5.40;1.00
336;DHT22;156;48.738;9.228;2022-12-19T15:00:46;5.30;1.00
336;DHT22;156;48.738;9.228;2022-12-19T15:03:23;5.30;1.00
336;DHT22;156;48.738;9.228;2022-12-19T15:05:51;5.20;1.00
336;DHT22;156;48.738;9.228;2022-12-19T15:08:27;5.20;1.00
336;DHT22;156;48.738;9.228;2022-12-19T15:10:57;5.10;1.00
336;DHT22;156;48.738;9.228;2022-12-19T15:13:51;5.00;1.00
336;DHT22;156;48.738;9.228;2022-12-19T15:16:24;4.90;1.00
336;DHT22;156;48.738;9.228;2022-12-19T15:18:54;4.80;1.00
336;DHT22;156;48.738;9.228;2022-12-19T15:21:21;4.80;1.00
336;DHT22;156;48.738;9.228;2022-12-19T15:23:50;4.80;1.00
336;DHT22;156;48.738;9.228;2022-12-19T15:26:19;4.80;1.00
336;DHT22;156;48.738;9.228;2022-12-19T15:28:48;4.80;1.00
336;DHT22;156;48.738;9.228;2022-12-19T15:31:33;4.70;1.00
336;DHT22;156;48.738;9.228;2022-12-19T15:34:03;4.70;1.00
336;DHT22;156;48.738;9.228;2022-12-19T15:36:30;4.70;1.00
336;DHT22;156;48.738;9.228;2022-12-19T15:38:59;4.70;1.00
336;DHT22;156;48.738;9.228;2022-12-19T15:41:26;4.60;1.00
336;DHT22;156;48.738;9.228;2022-12-19T15:43:53;4.60;1.00
336;DHT22;156;48.738;9.228;2022-12-19T15:46:22;4.60;1.00
336;DHT22;156;48.738;9.228;2022-12-19T15:48:51;4.60;1.00
336;DHT22;156;48.738;9.228;2022-12-19T15:51:18;4.50;1.00
336;DHT22;156;48.738;9.228;2022-12-19T15:53:44;4.50;1.00
336;DHT22;156;48.738;9.228;2022-12-19T15:56:24;4.50;1.00
336;DHT22;156;48.738;9.228;2022-12-19T15:58:53;4.40;1.00
336;DHT22;156;48.738;9.228;2022-12-19T16:01:22;4.70;1.00
336;DHT22;156;48.738;9.228;2022-12-19T16:03:49;4.30;1.00
336;DHT22;156;48.738;9.228;2022-12-19T16:06:16;4.30;1.50
336;DHT22;156;48.738;9.228;2022-12-19T16:08:43;4.30;2.20
336;DHT22;156;48.738;9.228;2022-12-19T16:11:18;4.20;2.40
336;DHT22;156;48.738;9.228;2022-12-19T16:13:48;4.20;2.30
336;DHT22;156;48.738;9.228;2022-12-19T16:16:16;4.20;3.80
336;DHT22;156;48.738;9.228;2022-12-19T16:18:43;4.10;5.40
336;DHT22;156;48.738;9.228;2022-12-19T16:21:17;4.10;6.80
336;DHT22;156;48.738;9.228;2022-12-19T16:23:45;4.00;10.70
336;DHT22;156;48.738;9.228;2022-12-19T16:26:26;3.90;14.10
336;DHT22;156;48.738;9.228;2022-12-19T16:31:23;3.90;15.80
336;DHT22;156;48.738;9.228;2022-12-19T16:33:51;3.90;18.60
336;DHT22;156;48.738;9.228;2022-12-19T16:36:18;3.90;20.00
336;DHT22;156;48.738;9.228;2022-12-19T16:38:45;3.90;21.30
336;DHT22;156;48.738;9.228;2022-12-19T16:41:15;3.80;24.60
336;DHT22;156;48.738;9.228;2022-12-19T16:43:45;3.90;25.80
336;DHT22;156;48.738;9.228;2022-12-19T16:46:16;3.90;25.50
336;DHT22;156;48.738;9.228;2022-12-19T16:48:43;3.80;26.90
336;DHT22;156;48.738;9.228;2022-12-19T16:51:17;3.90;27.00
336;DHT22;156;48.738;9.228;2022-12-19T16:53:45;3.90;29.30
336;DHT22;156;48.738;9.228;2022-12-19T16:56:20;3.90;30.90
336;DHT22;156;48.738;9.228;2022-12-19T16:58:50;3.90;30.30
336;DHT22;156;48.738;9.228;2022-12-19T17:01:17;4.00;30.40
336;DHT22;156;48.738;9.228;2022-12-19T17:03:45;4.00;30.50
336;DHT22;156;48.738;9.228;2022-12-19T17:06:13;4.00;30.20
336;DHT22;156;48.738;9.228;2022-12-19T17:08:41;4.10;28.30
336;DHT22;156;48.738;9.228;2022-12-19T17:11:15;4.10;27.60
336;DHT22;156;48.738;9.228;2022-12-19T17:13:44;4.20;25.20
336;DHT22;156;48.738;9.228;2022-12-19T17:16:14;4.20;23.40
336;DHT22;156;48.738;9.228;2022-12-19T17:18:43;4.20;22.70
336;DHT22;156;48.738;9.228;2022-12-19T17:21:15;4.20;22.80
336;DHT22;156;48.738;9.228;2022-12-19T17:23:42;4.20;22.50
336;DHT22;156;48.738;9.228;2022-12-19T17:26:11;4.30;24.50
336;DHT22;156;48.738;9.228;2022-12-19T17:28:39;4.20;23.60
336;DHT22;156;48.738;9.228;2022-12-19T17:31:18;4.40;22.90
336;DHT22;156;48.738;9.228;2022-12-19T17:33:48;4.50;19.40
336;DHT22;156;48.738;9.228;2022-12-19T17:36:15;4.50;18.00
336;DHT22;156;48.738;9.228;2022-12-19T17:38:42;4.60;15.10